Time;durP1;ratioP1;P1;durP2;ratioP2;P2;SDS_P1;SDS_P2;PMS_P1;PMS_P2;Temp;Humidity;BMP_temperature;BMP_pressure;BME280_temperature;BME280_humidity;BME280_pressure;Samples;Min_cycle;Max_cycle;Signal;HPM_P1;HPM_P2
2022/01/23 00:01:48;;;;;;;10.15;7.03;;;;;;;3.99;90.21;100400.06;4881877;29;20103;-88
2022/01/23 00:04:14;;;;;;;11.68;7.20;;;;;;;3.94;89.65;100385.72;4884254;29;20040;-89
2022/01/23 00:06:39;;;;;;;11.18;7.18;;;;;;;4.00;89.75;100401.72;4887629;29;20033;-89
2022/01/23 00:09:04;;;;;;;11.77;7.40;;;;;;;3.97;89.92;100399.41;4850010;29;20072;-88
2022/01/23 00:11:32;;;;;;;17.88;8.02;;;;;;;3.99;90.19;100408.00;4865220;29;20490;-89
2022/01/23 00:19:07;;;;;;;8.73;5.85;;;;;;;3.93;90.06;100408.69;4867740;29;20185;-90
2022/01/23 00:21:34;;;;;;;13.77;7.70;;;;;;;3.99;89.89;100423.84;4849306;29;20116;-89
2022/01/23 00:31:54;;;;;;;11.68;6.65;;;;;;;3.94;89.47;100398.91;4867367;29;20077;-89
2022/01/23 00:34:19;;;;;;;10.75;7.22;;;;;;;3.97;89.67;100407.34;4864445;29;20029;-87
2022/01/23 00:36:45;;;;;;;10.10;6.80;;;;;;;3.98;90.11;100416.06;4892022;29;20506;-89
2022/01/23 00:39:10;;;;;;;12.30;7.53;;;;;;;3.96;90.38;100418.06;4878624;29;20092;-92
2022/01/23 00:41:36;;;;;;;11.70;7.25;;;;;;;3.98;89.80;100430.09;4868023;29;20396;-92
2022/01/23 00:44:01;;;;;;;12.43;7.93;;;;;;;3.93;90.21;100421.06;4868075;29;20040;-92
2022/01/23 00:46:38;;;;;;;10.05;7.03;;;;;;;3.98;89.71;100421.34;4868010;29;20515;-92
2022/01/23 00:51:35;;;;;;;15.75;7.88;;;;;;;3.96;89.55;100420.69;4900031;29;20025;-91
2022/01/23 00:54:03;;;;;;;11.77;7.65;;;;;;;3.96;89.81;100421.53;4883432;29;20130;-91
2022/01/23 00:56:29;;;;;;;12.55;7.68;;;;;;;3.75;89.80;100395.66;4867942;29;20044;-91
2022/01/23 00:58:54;;;;;;;10.93;8.20;;;;;;;3.96;89.74;100421.53;4882986;29;20490;-91
2022/01/23 01:01:20;;;;;;;11.70;7.63;;;;;;;3.97;89.82;100425.84;4867374;29;20024;-90
2022/01/23 01:03:46;;;;;;;13.80;8.98;;;;;;;3.92;90.08;100422.03;4882525;29;20124;-90
2022/01/23 01:06:13;;;;;;;17.00;8.95;;;;;;;3.96;90.15;100437.38;4863611;29;20029;-90
2022/01/23 01:08:42;;;;;;;17.15;7.68;;;;;;;3.95;90.30;100433.09;4889592;29;20024;-90
2022/01/23 01:33:24;;;;;;;11.15;7.82;;;;;;;3.86;89.70;100449.94;4895934;29;20391;-91
2022/01/23 01:35:34;;;;;;;11.13;6.78;;;;;;;3.96;90.22;100457.69;4853460;29;20120;-92
2022/01/23 01:37:59;;;;;;;12.20;8.25;;;;;;;3.93;90.23;100458.88;4865672;29;20128;-92
2022/01/23 01:40:26;;;;;;;7.97;6.40;;;;;;;3.94;89.82;100457.84;4868684;29;20025;-91
2022/01/23 01:42:53;;;;;;;9.52;7.15;;;;;;;3.95;90.28;100462.16;4881978;29;20032;-93
2022/01/23 01:45:27;;;;;;;10.85;7.20;;;;;;;3.95;89.77;100448.13;4858262;29;20132;-91
2022/01/23 01:47:57;;;;;;;12.07;6.95;;;;;;;3.92;89.74;100443.16;4893740;29;20025;-91
2022/01/23 01:50:23;;;;;;;13.05;7.55;;;;;;;3.79;90.12;100433.94;4863856;29;20025;-91
2022/01/23 01:52:49;;;;;;;8.38;6.75;;;;;;;3.94;89.88;100457.03;4894628;29;20033;-91
2022/01/23 01:55:23;;;;;;;12.95;6.25;;;;;;;3.91;90.12;100444.97;4879053;29;20177;-91
2022/01/23 01:57:54;;;;;;;9.32;6.45;;;;;;;3.96;89.86;100452.41;4867430;29;20029;-91
2022/01/23 02:00:56;;;;;;;8.50;5.72;;;;;;;3.88;90.49;100437.41;4855294;29;20040;-90
2022/01/23 02:08:31;;;;;;;8.10;6.18;;;;;;;3.93;90.06;100435.09;4871010;29;20149;-84
2022/01/23 02:11:08;;;;;;;11.88;6.35;;;;;;;3.92;89.94;100440.53;4880657;29;20397;-84
2022/01/23 02:14:08;;;;;;;10.05;5.95;;;;;;;3.87;89.89;100440.22;4864323;29;20481;-85
2022/01/23 02:52:19;;;;;;;10.13;6.93;;;;;;;3.57;89.49;100449.59;4878786;29;20063;-85
2022/01/23 02:54:55;;;;;;;12.88;6.90;;;;;;;3.59;89.27;100447.63;4849229;29;20036;-86
2022/01/23 02:57:35;;;;;;;11.68;7.57;;;;;;;3.60;88.89;100457.22;4850531;29;20041;-84
2022/01/23 03:00:12;;;;;;;8.73;6.32;;;;;;;3.60;89.41;100454.56;4863343;29;20113;-84
2022/01/23 03:02:43;;;;;;;10.52;7.40;;;;;;;3.44;89.26;100428.16;4871387;29;20025;-84
2022/01/23 03:05:12;;;;;;;11.20;7.10;;;;;;;3.61;89.41;100461.47;4864785;29;20071;-84
2022/01/23 03:08:44;;;;;;;11.80;6.78;;;;;;;3.65;88.99;100462.81;4880906;29;20450;-86
2022/01/23 03:10:33;;;;;;;11.13;6.75;;;;;;;3.63;89.64;100467.41;4876946;29;20565;-86
2022/01/23 03:31:23;;;;;;;7.63;5.18;;;;;;;3.64;89.23;100466.44;4879442;29;20032;-88
2022/01/23 03:33:48;;;;;;;6.95;5.25;;;;;;;3.61;89.41;100466.75;4859958;29;20040;-87
2022/01/23 03:36:14;;;;;;;9.98;5.10;;;;;;;3.63;89.14;100467.41;4880908;29;20567;-86
2022/01/23 03:38:41;;;;;;;5.93;5.07;;;;;;;3.61;89.24;100454.41;4871173;29;20029;-86
2022/01/23 03:41:06;;;;;;;5.82;4.43;;;;;;;3.59;88.99;100453.75;4862514;29;20036;-86
2022/01/23 03:43:35;;;;;;;8.48;4.40;;;;;;;3.54;89.40;100444.66;4850457;29;20035;-87
2022/01/23 03:51:12;;;;;;;6.43;3.78;;;;;;;3.60;89.67;100467.78;4881961;29;20029;-86
2022/01/23 03:53:39;;;;;;;5.15;4.45;;;;;;;3.36;89.02;100436.06;4865136;29;20045;-86
2022/01/23 03:56:05;;;;;;;4.00;3.60;;;;;;;3.59;89.17;100464.28;4880642;29;20032;-85
2022/01/23 03:58:33;;;;;;;4.78;3.75;;;;;;;3.40;88.91;100442.66;4865430;29;20053;-86
2022/01/23 04:00:59;;;;;;;4.38;3.70;;;;;;;3.59;89.43;100474.03;4882691;29;20032;-85
2022/01/23 04:03:25;;;;;;;5.75;3.92;;;;;;;3.57;89.25;100468.09;4868624;29;20062;-86
2022/01/23 04:05:50;;;;;;;4.97;3.33;;;;;;;3.40;89.10;100432.94;4885145;29;20409;-86
2022/01/23 04:08:20;;;;;;;7.70;4.15;;;;;;;2.97;88.47;100368.06;4901316;29;20056;-86
2022/01/23 04:10:46;;;;;;;5.05;3.42;;;;;;;3.56;89.23;100471.72;4900581;29;20548;-85
2022/01/23 04:20:47;;;;;;;6.45;3.58;;;;;;;3.08;89.07;100398.56;4868239;29;20058;-84
2022/01/23 04:31:49;;;;;;;3.67;3.05;;;;;;;3.56;89.20;100479.66;4901008;29;20067;-86
2022/01/23 04:34:28;;;;;;;5.13;2.97;;;;;;;3.55;89.38;100481.44;4858985;29;20549;-87
2022/01/23 04:45:32;;;;;;;3.80;3.00;;;;;;;3.55;89.55;100494.66;4895444;29;20040;-87
2022/01/23 05:04:33;;;;;;;4.53;4.03;;;;;;;3.54;89.78;100485.06;4887342;29;20402;-87
2022/01/23 05:09:28;;;;;;;8.82;4.90;;;;;;;3.55;89.77;100491.19;4884616;29;20039;-86
2022/01/23 05:11:59;;;;;;;7.05;4.30;;;;;;;3.54;89.79;100493.00;4878685;29;20040;-85
2022/01/23 05:14:36;;;;;;;8.27;4.55;;;;;;;3.36;89.50;100470.38;4884750;29;20112;-85
2022/01/23 05:17:03;;;;;;;6.63;4.45;;;;;;;3.52;89.52;100483.56;4869782;29;20084;-85
2022/01/23 05:19:29;;;;;;;8.32;5.90;;;;;;;3.50;89.16;100483.75;4882560;29;20025;-86
2022/01/23 05:24:42;;;;;;;6.05;4.30;;;;;;;3.42;88.90;100488.19;4899272;29;20031;-86
2022/01/23 05:27:10;;;;;;;6.05;4.88;;;;;;;3.45;88.95;100493.16;4852151;29;20036;-85
2022/01/23 05:29:36;;;;;;;9.82;5.22;;;;;;;3.45;88.78;100493.97;4882132;29;20028;-85
2022/01/23 05:32:04;;;;;;;6.97;5.38;;;;;;;3.43;88.71;100495.94;4881507;29;20025;-87
2022/01/23 05:34:29;;;;;;;7.43;5.28;;;;;;;3.43;88.67;100490.66;4861858;29;20071;-87
2022/01/23 05:36:55;;;;;;;7.28;5.18;;;;;;;3.43;88.53;100490.66;4848482;29;20394;-86
2022/01/23 05:39:23;;;;;;;7.60;5.40;;;;;;;3.42;88.52;100499.59;4848199;29;20039;-87
2022/01/23 05:41:59;;;;;;;7.13;5.32;;;;;;;3.39;88.57;100504.34;4859755;29;20033;-88
2022/01/23 05:44:24;;;;;;;8.57;5.05;;;;;;;3.37;88.41;100493.94;4878979;29;20060;-87
2022/01/23 05:46:50;;;;;;;8.48;5.55;;;;;;;3.38;88.81;100495.63;4868960;29;20045;-87
2022/01/23 05:49:16;;;;;;;6.20;5.00;;;;;;;3.39;88.52;100489.34;4894586;29;20084;-87
2022/01/23 05:51:41;;;;;;;8.27;4.90;;;;;;;3.28;88.86;100480.88;4865578;29;20021;-87
2022/01/23 05:54:07;;;;;;;8.48;6.40;;;;;;;3.37;88.69;100491.31;4863513;29;20525;-87
2022/01/23 05:56:32;;;;;;;8.93;5.68;;;;;;;3.38;89.12;100502.69;4858592;29;20050;-87
2022/01/23 05:58:59;;;;;;;7.40;5.32;;;;;;;3.39;88.82;100499.88;4857635;29;20524;-87
2022/01/23 06:01:24;;;;;;;7.55;5.88;;;;;;;3.37;88.75;100506.31;4876060;29;20397;-86
2022/01/23 06:03:49;;;;;;;13.10;7.40;;;;;;;3.35;89.16;100506.50;4880279;29;20040;-86
2022/01/23 06:06:15;;;;;;;9.95;5.90;;;;;;;3.40;89.22;100513.91;4845621;29;20119;-86
2022/01/23 06:08:40;;;;;;;11.05;7.50;;;;;;;3.34;89.18;100509.28;4902639;29;20446;-86
2022/01/23 06:11:06;;;;;;;9.50;7.05;;;;;;;3.41;89.11;100524.31;4863851;29;20085;-85
2022/01/23 06:13:33;;;;;;;9.20;6.10;;;;;;;3.40;89.29;100527.94;4842107;29;20036;-87
2022/01/23 06:15:58;;;;;;;10.07;7.05;;;;;;;3.41;89.36;100532.22;4860291;29;20033;-88
2022/01/23 06:18:25;;;;;;;8.57;6.95;;;;;;;3.43;89.48;100524.16;4859787;29;20545;-88
2022/01/23 06:20:50;;;;;;;9.57;7.25;;;;;;;3.42;89.24;100525.13;4877001;29;20061;-86
2022/01/23 06:23:16;;;;;;;8.73;6.22;;;;;;;3.44;88.97;100524.00;4852469;29;20127;-86
2022/01/23 06:25:43;;;;;;;10.20;7.43;;;;;;;3.42;89.50;100525.13;4859680;29;20032;-84
2022/01/23 06:28:10;;;;;;;8.30;6.32;;;;;;;3.42;89.70;100525.13;4875076;29;20025;-85
2022/01/23 06:30:37;;;;;;;10.95;6.97;;;;;;;3.08;89.27;100466.34;4864223;29;20024;-85
2022/01/23 06:33:05;;;;;;;8.15;6.70;;;;;;;3.43;89.67;100526.81;4878314;29;20055;-85
2022/01/23 06:35:31;;;;;;;10.70;5.93;;;;;;;3.44;89.60;100526.63;4880797;29;20040;-85
2022/01/23 06:38:00;;;;;;;8.02;6.10;;;;;;;3.37;89.38;100515.06;4879755;29;20088;-85
2022/01/23 06:40:25;;;;;;;12.75;6.80;;;;;;;3.46;89.59;100537.84;4844514;29;20048;-87
2022/01/23 06:42:51;;;;;;;11.40;6.95;;;;;;;3.37;89.67;100519.50;4854049;29;20036;-85
2022/01/23 06:45:16;;;;;;;10.20;6.97;;;;;;;3.46;89.21;100537.03;4844555;29;20049;-85
2022/01/23 06:47:41;;;;;;;9.30;6.00;;;;;;;3.47;89.76;100533.41;4841032;29;20127;-85
2022/01/23 06:50:07;;;;;;;8.23;5.78;;;;;;;3.47;89.95;100534.22;4858134;29;20033;-84
2022/01/23 06:52:33;;;;;;;8.48;5.93;;;;;;;3.31;89.65;100509.59;4848917;29;20066;-85
2022/01/23 06:54:58;;;;;;;8.57;5.80;;;;;;;3.48;90.10;100542.97;4865205;29;20040;-84
2022/01/23 06:57:24;;;;;;;9.85;5.93;;;;;;;3.48;89.93;100540.31;4869718;29;20510;-86
2022/01/23 06:59:49;;;;;;;8.85;6.22;;;;;;;3.49;89.30;100542.81;4870423;29;20048;-85
2022/01/23 07:02:15;;;;;;;13.40;6.35;;;;;;;3.49;89.62;100549.91;4879287;29;20036;-88
2022/01/23 07:04:41;;;;;;;5.95;4.63;;;;;;;3.48;90.08;100550.88;4875352;29;20478;-86
2022/01/23 07:07:07;;;;;;;6.85;5.47;;;;;;;3.43;89.83;100550.56;4866861;29;20044;-86
2022/01/23 07:09:33;;;;;;;12.07;6.00;;;;;;;3.47;89.83;100555.31;4881303;29;20029;-85
2022/01/23 07:11:58;;;;;;;6.38;5.00;;;;;;;3.48;89.42;100564.91;4881068;29;20569;-87
2022/01/23 07:14:24;;;;;;;8.38;5.78;;;;;;;3.49;89.15;100568.38;4865399;29;20092;-83
2022/01/23 07:16:50;;;;;;;8.57;5.47;;;;;;;3.49;89.29;100563.09;4858833;29;20029;-86
2022/01/23 07:19:15;;;;;;;9.93;6.35;;;;;;;3.49;89.11;100552.53;4878719;29;20020;-87
2022/01/23 07:21:41;;;;;;;8.13;5.72;;;;;;;3.46;89.50;100552.84;4861652;29;20060;-86
2022/01/23 07:24:07;;;;;;;9.05;6.25;;;;;;;3.48;89.30;100551.72;4878098;29;20040;-87
2022/01/23 07:26:34;;;;;;;9.45;5.47;;;;;;;3.13;89.37;100493.06;4863370;29;20056;-85
2022/01/23 07:29:02;;;;;;;7.03;5.22;;;;;;;3.46;89.47;100550.22;4864382;29;20115;-85
2022/01/23 07:34:03;;;;;;;11.90;7.15;;;;;;;3.47;89.32;100560.59;4880583;29;20040;-86
2022/01/23 07:36:29;;;;;;;8.10;6.22;;;;;;;3.47;89.65;100565.88;4856517;29;20370;-85
2022/01/23 07:38:54;;;;;;;11.23;5.85;;;;;;;3.48;89.37;100564.06;4863344;29;20032;-85
2022/01/23 07:41:21;;;;;;;9.60;5.85;;;;;;;3.48;89.58;100569.34;4864235;29;20037;-86
2022/01/23 07:43:46;;;;;;;7.32;5.38;;;;;;;3.50;89.13;100575.28;4882105;29;20116;-84
2022/01/23 07:46:12;;;;;;;9.30;6.57;;;;;;;3.49;89.71;100577.13;4885875;29;20044;-84
2022/01/23 07:48:37;;;;;;;8.35;5.50;;;;;;;3.48;89.19;100586.03;4869237;29;20039;-84
2022/01/23 07:51:03;;;;;;;10.80;5.63;;;;;;;3.47;89.72;100587.00;4864344;29;20088;-84
2022/01/23 07:53:28;;;;;;;8.40;5.50;;;;;;;3.44;89.86;100589.97;4886883;29;20043;-84
2022/01/23 07:55:54;;;;;;;7.70;5.55;;;;;;;3.44;90.01;100589.13;4875188;29;20057;-84
2022/01/23 07:58:19;;;;;;;10.82;6.60;;;;;;;3.51;89.77;100596.28;4854331;29;20396;-86
2022/01/23 08:00:47;;;;;;;9.15;5.85;;;;;;;3.54;90.11;100601.22;4880701;29;20035;-85
2022/01/23 08:03:13;;;;;;;9.52;5.95;;;;;;;3.55;89.54;100604.69;4863435;29;20041;-85
2022/01/23 08:05:39;;;;;;;10.60;5.70;;;;;;;3.56;89.96;100603.72;4959414;23;20044;-88
2022/01/23 08:08:04;;;;;;;7.68;5.18;;;;;;;3.52;89.96;100597.91;4892781;29;20480;-86
2022/01/23 08:10:30;;;;;;;7.82;5.38;;;;;;;3.54;89.77;100609.13;4870282;29;20032;-88
2022/01/23 08:12:56;;;;;;;7.63;5.60;;;;;;;3.58;89.87;100621.03;4890138;29;20487;-88
2022/01/23 08:15:22;;;;;;;6.43;4.93;;;;;;;3.56;89.62;100620.34;4887754;29;20092;-90
2022/01/23 08:17:48;;;;;;;7.50;5.47;;;;;;;3.58;89.88;100621.03;4869542;29;20131;-90
2022/01/23 08:20:14;;;;;;;7.82;5.85;;;;;;;3.63;89.80;100642.50;4884126;29;20075;-89
2022/01/23 08:22:39;;;;;;;8.23;5.72;;;;;;;3.63;90.08;100637.22;4868901;29;20048;-90
2022/01/23 08:25:05;;;;;;;7.82;5.30;;;;;;;3.55;89.72;100617.88;4853422;29;20025;-90
2022/01/23 08:27:31;;;;;;;8.68;5.50;;;;;;;3.70;89.69;100650.59;4884190;29;20051;-90
2022/01/23 08:30:01;;;;;;;7.88;5.82;;;;;;;3.73;89.54;100642.38;4869132;29;20032;-89
2022/01/23 08:32:27;;;;;;;9.70;6.22;;;;;;;3.70;89.98;100632.13;4884007;29;20473;-89
2022/01/23 08:34:56;;;;;;;8.52;6.22;;;;;;;3.77;89.93;100646.34;4868490;29;20092;-90
2022/01/23 08:37:23;;;;;;;7.82;5.57;;;;;;;3.75;89.45;100635.94;4853521;29;20485;-90
2022/01/23 08:39:49;;;;;;;8.07;5.45;;;;;;;3.79;89.76;100639.91;4853011;29;20068;-89
2022/01/23 08:42:16;;;;;;;9.30;6.18;;;;;;;3.82;90.01;100640.59;4852945;29;20128;-89
2022/01/23 08:44:44;;;;;;;8.52;6.03;;;;;;;3.82;89.32;100643.22;4883665;29;20370;-89
2022/01/23 08:47:09;;;;;;;11.43;7.03;;;;;;;3.83;89.61;100643.06;4867521;29;20501;-89
2022/01/23 08:49:43;;;;;;;10.77;7.25;;;;;;;3.86;89.77;100642.75;4852882;29;20029;-89
2022/01/23 08:52:08;;;;;;;9.60;7.13;;;;;;;3.88;90.21;100646.03;4883975;29;20397;-89
2022/01/23 08:54:34;;;;;;;12.60;6.82;;;;;;;3.88;89.68;100632.00;4868065;29;20032;-90
2022/01/23 08:56:59;;;;;;;12.32;7.40;;;;;;;3.93;89.47;100640.28;4868178;29;20163;-89
2022/01/23 08:59:25;;;;;;;13.48;7.78;;;;;;;3.95;89.34;100627.72;4853001;29;20477;-89
2022/01/23 09:01:50;;;;;;;11.68;7.80;;;;;;;3.96;89.74;100627.56;4867567;29;20445;-89
2022/01/23 09:04:16;;;;;;;12.27;8.00;;;;;;;3.79;89.30;100600.31;4883518;29;20025;-90
2022/01/23 09:06:47;;;;;;;10.27;6.60;;;;;;;3.96;89.43;100622.28;4883347;29;20398;-90
2022/01/23 09:09:20;;;;;;;14.20;7.60;;;;;;;3.91;89.61;100608.72;4884834;29;20039;-90
2022/01/23 09:14:23;;;;;;;10.48;7.75;;;;;;;3.88;89.72;100603.78;4866942;29;20029;-89
2022/01/23 09:16:50;;;;;;;12.65;8.40;;;;;;;4.04;89.63;100629.41;4865480;29;20200;-89
2022/01/23 09:19:20;;;;;;;14.70;8.70;;;;;;;3.93;89.49;100609.41;4865796;29;20028;-93
2022/01/23 09:21:49;;;;;;;15.20;9.35;;;;;;;3.67;89.75;100574.34;4867831;29;20104;-87
2022/01/23 09:24:20;;;;;;;11.07;8.23;;;;;;;3.87;89.20;100604.75;4872286;29;20072;-88
2022/01/23 09:26:52;;;;;;;16.40;9.13;;;;;;;3.82;89.92;100593.03;4887432;29;20039;-92
2022/01/23 09:29:28;;;;;;;12.55;8.18;;;;;;;4.17;89.45;100642.97;4883643;29;20033;-91
2022/01/23 09:32:03;;;;;;;12.68;7.93;;;;;;;4.18;89.87;100647.25;4869302;29;20108;-90
2022/01/23 09:34:33;;;;;;;14.95;8.55;;;;;;;4.18;89.78;100634.88;4885270;29;20032;-92
2022/01/23 09:37:05;;;;;;;12.73;7.63;;;;;;;4.24;89.61;100643.94;4869860;29;20044;-90
2022/01/23 09:39:31;;;;;;;12.43;8.25;;;;;;;4.19;89.99;100630.41;4883202;29;20031;-91
2022/01/23 09:42:11;;;;;;;12.52;8.18;;;;;;;4.23;89.40;100642.31;4867478;29;20035;-89
2022/01/23 09:44:42;;;;;;;13.95;9.25;;;;;;;4.27;89.46;100641.81;4885691;29;20056;-92
2022/01/23 09:47:11;;;;;;;12.88;8.07;;;;;;;4.28;89.22;100646.09;4885587;29;20084;-89
2022/01/23 09:49:37;;;;;;;12.98;8.48;;;;;;;4.29;89.37;100641.66;4858758;29;20029;-87
2022/01/23 09:52:04;;;;;;;14.43;8.38;;;;;;;4.29;89.94;100639.00;4867877;29;20136;-91
2022/01/23 09:54:32;;;;;;;12.20;7.80;;;;;;;4.30;89.45;100643.31;4884529;29;20032;-91
2022/01/23 09:57:03;;;;;;;12.27;8.57;;;;;;;4.32;89.40;100642.16;4883058;29;20029;-91
2022/01/23 09:59:31;;;;;;;13.43;7.75;;;;;;;4.24;89.48;100628.91;4867399;29;20028;-91
2022/01/23 10:01:57;;;;;;;15.13;7.78;;;;;;;4.30;89.28;100636.19;4882407;29;20084;-92
2022/01/23 10:04:26;;;;;;;11.13;7.30;;;;;;;4.12;89.22;100609.09;4873991;29;20060;-92
2022/01/23 10:06:53;;;;;;;10.20;6.82;;;;;;;4.01;89.43;100577.72;4849992;29;20080;-92
2022/01/23 10:09:25;;;;;;;13.52;7.75;;;;;;;4.27;89.35;100628.59;4849739;29;20068;-90
2022/01/23 10:11:52;;;;;;;14.02;7.95;;;;;;;4.38;89.80;100645.94;4866991;29;20021;-92
2022/01/23 10:14:20;;;;;;;11.98;7.35;;;;;;;4.21;88.90;100618.69;4851722;29;20037;-92
2022/01/23 10:16:47;;;;;;;67.88;10.73;;;;;;;4.36;89.17;100648.75;4853742;29;20044;-91
2022/01/23 10:19:16;;;;;;;20.52;7.88;;;;;;;4.37;89.20;100633.72;4869179;29;20029;-89
2022/01/23 10:21:43;;;;;;;10.95;6.88;;;;;;;4.37;88.62;100645.13;4870557;29;20048;-92
2022/01/23 10:24:11;;;;;;;9.00;5.93;;;;;;;4.25;88.79;100622.66;4872838;29;20037;-92
2022/01/23 10:26:46;;;;;;;12.18;6.45;;;;;;;4.21;89.23;100597.56;4860421;29;20029;-92
2022/01/23 10:29:27;;;;;;;10.55;6.78;;;;;;;4.44;89.21;100627.63;4868435;29;20032;-92
2022/01/23 10:32:21;;;;;;;13.25;6.75;;;;;;;4.36;88.79;100622.34;4869285;29;20033;-92
2022/01/23 10:34:59;;;;;;;10.30;6.05;;;;;;;4.22;89.02;100593.06;4859826;29;20044;-93
2022/01/23 10:37:37;;;;;;;25.90;12.15;;;;;;;4.13;88.72;100581.69;4874631;29;20029;-93
2022/01/23 10:40:10;;;;;;;12.48;7.97;;;;;;;4.10;89.09;100582.03;4880829;29;20013;-93
2022/01/23 10:48:26;;;;;;;11.40;6.22;;;;;;;4.46;88.61;100640.66;4909666;29;20024;-94
2022/01/23 10:51:19;;;;;;;9.80;6.70;;;;;;;4.52;88.85;100646.09;4906284;29;20023;-93
2022/01/23 10:54:11;;;;;;;9.13;6.47;;;;;;;4.56;88.92;100636.03;4906161;29;20012;-93
2022/01/23 10:56:52;;;;;;;9.75;6.45;;;;;;;4.61;88.41;100635.56;4904801;29;20024;-93
2022/01/23 10:59:36;;;;;;;9.20;6.55;;;;;;;4.28;88.76;100585.31;4904838;29;20096;-94
2022/01/23 11:02:14;;;;;;;6.88;5.25;;;;;;;4.33;88.68;100572.44;4901760;29;20104;-94
2022/01/23 11:05:04;;;;;;;8.52;5.55;;;;;;;4.72;88.84;100638.66;4902731;29;20021;-92
2022/01/23 11:07:32;;;;;;;13.38;6.15;;;;;;;4.39;88.44;100579.69;4904764;29;20017;-93
2022/01/23 11:10:11;;;;;;;6.63;4.88;;;;;;;4.40;88.82;100583.16;4904980;29;20024;-92
2022/01/23 11:18:47;;;;;;;8.15;5.22;;;;;;;4.87;88.38;100636.97;4906024;29;20508;-92
2022/01/23 11:28:46;;;;;;;6.50;4.43;;;;;;;4.87;88.10;100652.06;4902130;29;20096;-89
2022/01/23 11:31:19;;;;;;;9.32;4.38;;;;;;;4.59;87.81;100605.81;4869319;29;20122;-88
2022/01/23 11:33:49;;;;;;;5.65;4.93;;;;;;;4.83;88.10;100643.59;4884461;29;20023;-87
2022/01/23 11:36:17;;;;;;;8.18;4.60;;;;;;;4.72;87.35;100629.94;4884287;29;20033;-89
2022/01/23 11:38:45;;;;;;;7.15;5.05;;;;;;;4.67;87.62;100624.31;4883930;29;20044;-88
2022/01/23 11:55:33;;;;;;;4.82;3.50;;;;;;;4.84;88.25;100649.72;4900587;29;20560;-92
2022/01/23 11:58:41;;;;;;;6.35;4.20;;;;;;;4.85;87.82;100648.75;4883647;29;20083;-92
2022/01/23 12:01:26;;;;;;;4.47;3.40;;;;;;;4.84;87.64;100647.91;4883654;29;20586;-91
2022/01/23 12:04:24;;;;;;;4.78;3.05;;;;;;;4.82;88.50;100644.63;4884501;29;20039;-93
2022/01/23 12:07:20;;;;;;;4.65;3.33;;;;;;;4.84;87.90;100636.50;4868365;29;20036;-92
2022/01/23 12:10:28;;;;;;;6.55;3.35;;;;;;;4.84;88.06;100633.88;4882597;29;20032;-92
2022/01/23 12:13:34;;;;;;;3.97;3.13;;;;;;;4.86;87.71;100645.09;4883165;29;20516;-93
2022/01/23 12:16:34;;;;;;;5.63;3.28;;;;;;;4.73;88.78;100620.97;4883787;29;20033;-92
2022/01/23 12:19:18;;;;;;;5.07;3.15;;;;;;;4.86;88.41;100635.34;4870082;29;20061;-93
2022/01/23 12:21:45;;;;;;;3.55;2.97;;;;;;;4.69;88.62;100601.16;4883516;29;20032;-92
2022/01/23 12:24:18;;;;;;;4.13;3.10;;;;;;;4.93;88.53;100643.44;4886787;29;20033;-92
2022/01/23 12:26:45;;;;;;;3.83;3.08;;;;;;;4.73;88.65;100603.31;4886231;29;20021;-92
2022/01/23 12:29:18;;;;;;;4.10;3.20;;;;;;;4.73;88.47;100598.00;4871594;29;20059;-93
2022/01/23 12:31:44;;;;;;;6.05;3.22;;;;;;;4.90;88.32;100630.53;4886647;29;20084;-92
2022/01/23 12:34:10;;;;;;;3.30;2.67;;;;;;;5.01;87.98;100633.66;4887024;29;20035;-92
2022/01/23 12:36:40;;;;;;;3.70;2.65;;;;;;;5.03;88.69;100636.13;4886847;29;20112;-92
2022/01/23 12:39:08;;;;;;;5.00;3.25;;;;;;;5.03;88.67;100633.50;4886519;29;20031;-92
2022/01/23 12:41:39;;;;;;;4.78;3.13;;;;;;;5.05;88.21;100639.44;4886699;29;20375;-93
2022/01/23 12:44:39;;;;;;;4.18;3.25;;;;;;;5.05;87.77;100634.13;4871664;29;20032;-92
2022/01/23 12:47:25;;;;;;;5.22;3.78;;;;;;;5.01;87.97;100615.16;4887018;29;20020;-92
2022/01/23 12:49:52;;;;;;;5.80;3.03;;;;;;;4.95;88.14;100601.75;4885886;29;20508;-92
2022/01/23 12:52:21;;;;;;;5.35;3.13;;;;;;;5.02;88.28;100608.84;4889711;29;20080;-93
2022/01/23 12:54:47;;;;;;;5.28;3.50;;;;;;;5.08;88.32;100613.47;4895446;29;20034;-93
2022/01/23 12:57:35;;;;;;;4.10;3.47;;;;;;;4.91;88.18;100580.13;4906190;29;20111;-93
2022/01/23 13:00:05;;;;;;;5.38;3.53;;;;;;;5.08;88.10;100607.34;4872514;29;20044;-92
2022/01/23 13:02:40;;;;;;;5.25;3.33;;;;;;;5.09;87.82;100603.69;4885683;29;20116;-92
2022/01/23 13:05:07;;;;;;;3.07;2.60;;;;;;;4.94;88.04;100590.34;4885969;29;20064;-91
2022/01/23 13:08:08;;;;;;;6.38;3.50;;;;;;;5.06;87.35;100609.34;4885045;29;20267;-91
2022/01/23 13:16:20;;;;;;;5.85;3.17;;;;;;;5.08;88.23;100608.19;4900804;29;20035;-91
2022/01/23 13:19:16;;;;;;;4.80;2.78;;;;;;;5.08;87.46;100613.47;4886712;29;20039;-92
2022/01/23 13:28:29;;;;;;;4.65;2.80;;;;;;;5.09;88.22;100616.94;4902416;29;20047;-93
2022/01/23 13:30:35;;;;;;;5.32;3.00;;;;;;;5.07;87.77;100605.69;4901060;29;20430;-90
2022/01/23 13:33:08;;;;;;;7.20;3.20;;;;;;;5.06;87.98;100601.41;4883795;29;20028;-93
2022/01/23 13:35:39;;;;;;;3.60;2.88;;;;;;;4.96;88.01;100596.28;4883466;29;20047;-93
2022/01/23 13:38:09;;;;;;;3.28;2.55;;;;;;;5.13;88.06;100620.91;4883407;29;20032;-92
2022/01/23 13:40:40;;;;;;;3.08;2.50;;;;;;;4.97;88.52;100590.03;4899160;29;20115;-92
2022/01/23 13:49:52;;;;;;;3.55;2.85;;;;;;;5.11;87.90;100613.13;4912805;29;20050;-92
2022/01/23 13:59:42;;;;;;;6.57;3.88;;;;;;;5.14;87.89;100615.44;4900234;29;20035;-93
2022/01/23 14:02:18;;;;;;;3.65;2.67;;;;;;;4.98;87.49;100577.63;4883821;29;20040;-91
2022/01/23 14:04:59;;;;;;;5.18;3.03;;;;;;;5.12;87.82;100603.38;4893296;29;20496;-92
2022/01/23 14:07:27;;;;;;;3.80;3.05;;;;;;;5.16;87.51;100615.25;4957667;24;20071;-89
2022/01/23 14:09:56;;;;;;;3.95;2.72;;;;;;;5.16;87.95;100615.25;4871141;29;20144;-89
2022/01/23 14:12:23;;;;;;;6.35;2.80;;;;;;;5.12;87.99;100619.25;4864969;29;20123;-88
2022/01/23 14:15:05;;;;;;;4.88;3.13;;;;;;;5.16;87.84;100616.09;4855361;29;20025;-87
2022/01/23 14:17:36;;;;;;;4.10;2.85;;;;;;;4.79;88.30;100543.59;4861133;29;20028;-88
2022/01/23 14:20:16;;;;;;;4.30;2.78;;;;;;;5.20;88.56;100616.56;4865525;29;20029;-87
2022/01/23 14:22:46;;;;;;;4.85;3.05;;;;;;;5.20;87.96;100617.41;4880675;29;20036;-89
2022/01/23 14:25:25;;;;;;;3.65;2.78;;;;;;;5.19;88.43;100614.94;4865543;29;20040;-89
2022/01/23 14:28:07;;;;;;;3.85;2.42;;;;;;;5.17;87.85;100608.97;4864737;29;20068;-88
2022/01/23 14:30:34;;;;;;;8.80;2.83;;;;;;;5.19;87.97;100607.00;4863935;29;20036;-88
2022/01/23 14:33:12;;;;;;;5.57;3.58;;;;;;;5.17;87.79;100604.53;4859909;29;20486;-88
2022/01/23 14:35:37;;;;;;;4.75;3.40;;;;;;;5.13;88.02;100602.38;4878862;29;20020;-88
2022/01/23 14:38:13;;;;;;;5.05;3.40;;;;;;;5.15;88.41;100610.97;4880233;29;20397;-88
2022/01/23 14:40:51;;;;;;;4.07;2.70;;;;;;;5.15;87.93;100603.03;4886462;29;20037;-87
2022/01/23 14:43:17;;;;;;;6.25;3.15;;;;;;;5.18;87.83;100615.91;4879735;29;20036;-88
2022/01/23 14:45:49;;;;;;;6.35;3.00;;;;;;;5.02;88.25;100589.50;4847537;29;20057;-87
2022/01/23 14:48:25;;;;;;;5.53;2.90;;;;;;;4.35;87.91;100477.94;4880050;29;20024;-87
2022/01/23 14:51:09;;;;;;;3.55;2.50;;;;;;;4.50;88.50;100509.78;4857201;29;20037;-89
2022/01/23 14:53:40;;;;;;;4.07;3.17;;;;;;;4.71;88.01;100551.56;4871970;29;20045;-86
2022/01/23 14:56:13;;;;;;;3.65;2.50;;;;;;;4.79;88.73;100554.19;4864299;29;20036;-86
2022/01/23 14:59:20;;;;;;;4.00;2.50;;;;;;;4.99;88.68;100587.19;4865391;29;20033;-88
2022/01/23 15:02:23;;;;;;;3.55;2.10;;;;;;;5.11;88.97;100599.09;4884088;29;20045;-86
2022/01/23 15:05:52;;;;;;;5.20;2.40;;;;;;;4.85;88.15;100564.91;4887733;29;20477;-85
2022/01/23 15:16:27;;;;;;;7.32;3.90;;;;;;;5.00;88.31;100602.91;4897700;29;20512;-88
2022/01/23 15:18:52;;;;;;;5.95;3.67;;;;;;;4.81;88.61;100574.19;4878910;29;20044;-88
2022/01/23 15:21:18;;;;;;;5.55;4.03;;;;;;;4.65;88.39;100547.78;4848669;29;20036;-86
2022/01/23 15:23:45;;;;;;;5.47;3.75;;;;;;;5.01;88.38;100606.38;4847447;29;20033;-87
2022/01/23 15:26:10;;;;;;;4.85;3.30;;;;;;;4.58;89.06;100541.50;4863139;29;20490;-87
2022/01/23 15:28:36;;;;;;;5.38;3.33;;;;;;;4.54;88.72;100538.38;4847215;29;20122;-86
2022/01/23 15:31:02;;;;;;;5.00;3.33;;;;;;;5.01;89.15;100612.50;4862779;29;20033;-86